createdAt,value
2023-05-19T00:00:28.776Z,100533.06
2023-05-19T00:03:31.899Z,100537.56
2023-05-19T00:06:34.440Z,100537.63
2023-05-19T00:09:36.815Z,100532.16
2023-05-19T00:12:38.841Z,100532.88
2023-05-19T00:15:41.241Z,100520.75
2023-05-19T00:18:43.645Z,100509.09
2023-05-19T00:21:45.689Z,100509.09
2023-05-19T00:24:47.661Z,100522.16
2023-05-19T00:27:49.546Z,100515.91
2023-05-19T00:30:52.015Z,100515.91
2023-05-19T00:33:54.006Z,100514.97
2023-05-19T00:36:55.964Z,100520.19
2023-05-19T00:39:59.267Z,100515.75
2023-05-19T00:43:01.339Z,100513.03
2023-05-19T00:46:03.875Z,100509.47
2023-05-19T00:49:05.865Z,100498.00
2023-05-19T00:52:07.898Z,100489.34
2023-05-19T00:55:10.690Z,100487.53
2023-05-19T00:58:14.069Z,100492.72
2023-05-19T01:01:17.206Z,100488.31
2023-05-19T01:04:21.780Z,100495.19
2023-05-19T01:07:23.910Z,100487.38
2023-05-19T01:10:25.890Z,100495.38
2023-05-19T01:13:28.901Z,100494.63
2023-05-19T01:16:37.700Z,100490.19
2023-05-19T01:20:11.186Z,100495.38
2023-05-19T01:23:24.081Z,100492.72
2023-05-19T01:26:44.754Z,100495.38
2023-05-19T01:29:49.772Z,100491.81
2023-05-19T01:32:56.527Z,100492.13
2023-05-19T01:35:59.853Z,100493.66
2023-05-19T01:39:02.556Z,100496.31
2023-05-19T01:42:04.943Z,100498.00
2023-05-19T01:45:11.412Z,100502.44
2023-05-19T01:48:14.982Z,100506.03
2023-05-19T01:51:17.216Z,100504.25
2023-05-19T01:54:19.241Z,100504.25
2023-05-19T01:57:51.981Z,100504.41
2023-05-19T02:01:16.709Z,100508.69
2023-05-19T02:04:40.397Z,100507.81
2023-05-19T02:07:51.036Z,100518.41
2023-05-19T02:11:11.794Z,100509.53
2023-05-19T02:14:25.081Z,100517.47
2023-05-19T02:17:33.302Z,100522.75
2023-05-19T02:20:35.436Z,100519.16
2023-05-19T02:23:37.522Z,100512.09
2023-05-19T02:26:39.419Z,100511.37
2023-05-19T02:29:41.576Z,100513.03
2023-05-19T02:32:46.919Z,100514.75
2023-05-19T02:35:49.156Z,100517.47
2023-05-19T02:38:51.368Z,100513.97
2023-05-19T02:41:53.476Z,100515.91
2023-05-19T02:44:55.557Z,100514.81
2023-05-19T02:47:57.586Z,100511.22
2023-05-19T02:50:59.558Z,100512.94
2023-05-19T02:54:01.536Z,100516.34
2023-05-19T02:57:03.740Z,100518.25
2023-05-19T03:00:06.960Z,100511.47
2023-05-19T03:03:10.556Z,100510.19
2023-05-19T03:06:13.328Z,100499.34
2023-05-19T03:09:15.345Z,100503.25
2023-05-19T03:12:17.322Z,100506.91
2023-05-19T03:15:19.477Z,100512.94
2023-05-19T03:18:21.551Z,100520.03
2023-05-19T03:21:23.785Z,100517.38
2023-05-19T03:24:25.956Z,100510.31
2023-05-19T03:27:27.950Z,100530.44
2023-05-19T03:30:30.157Z,100519.09
2023-05-19T03:33:32.346Z,100526.84
2023-05-19T03:36:40.037Z,100523.44
2023-05-19T03:39:42.151Z,100531.22
2023-05-19T03:42:44.125Z,100531.28
2023-05-19T03:45:46.424Z,100532.22
2023-05-19T03:48:48.480Z,100533.00
2023-05-19T03:51:50.624Z,100524.81
2023-05-19T03:54:53.120Z,100527.63
2023-05-19T03:57:55.076Z,100527.63
2023-05-19T04:00:57.135Z,100522.59
2023-05-19T04:03:59.206Z,100524.91
2023-05-19T04:07:01.397Z,100524.97
2023-05-19T04:10:06.914Z,100526.84
2023-05-19T04:13:09.130Z,100535.37
2023-05-19T04:16:11.393Z,100538.13
2023-05-19T04:19:13.461Z,100541.13
2023-05-19T04:22:15.523Z,100542.22
2023-05-19T04:25:17.524Z,100553.88
2023-05-19T04:28:19.499Z,100541.03
2023-05-19T04:31:21.919Z,100541.28
2023-05-19T04:34:23.922Z,100551.78
2023-05-19T04:37:26.557Z,100557.00
2023-05-19T04:40:31.499Z,100549.28
2023-05-19T04:43:34.430Z,100568.94
2023-05-19T04:46:36.667Z,100565.97
2023-05-19T04:49:39.096Z,100567.50
2023-05-19T04:52:42.601Z,100559.41
2023-05-19T04:55:45.413Z,100556.09
2023-05-19T04:58:47.401Z,100564.34
2023-05-19T05:01:49.342Z,100562.22
2023-05-19T05:04:51.344Z,100568.28
2023-05-19T05:07:54.278Z,100570.59
2023-05-19T05:10:56.622Z,100575.41
2023-05-19T05:13:58.791Z,100573.28
2023-05-19T05:17:01.673Z,100568.72
2023-05-19T05:20:06.250Z,100574.75
2023-05-19T05:23:09.768Z,100574.25
2023-05-19T05:26:19.584Z,100581.34
2023-05-19T05:29:21.607Z,100582.47
2023-05-19T05:32:23.884Z,100582.19
2023-05-19T05:35:26.370Z,100581.97
2023-05-19T05:38:28.417Z,100589.47
2023-05-19T05:41:35.328Z,100589.09
2023-05-19T05:44:37.610Z,100590.47
2023-05-19T05:47:41.534Z,100591.97
2023-05-19T05:50:44.761Z,100591.12
2023-05-19T05:53:52.515Z,100593.41
2023-05-19T05:56:54.789Z,100601.00
2023-05-19T05:59:57.425Z,100608.16
2023-05-19T06:02:59.602Z,100609.03
2023-05-19T06:06:02.053Z,100608.38
2023-05-19T06:09:04.872Z,100608.06
2023-05-19T06:12:07.180Z,100608.84
2023-05-19T06:15:09.282Z,100589.19
2023-05-19T06:18:11.315Z,100607.25
2023-05-19T06:21:13.706Z,100618.41
2023-05-19T06:24:15.717Z,100621.28
2023-05-19T06:27:17.673Z,100617.00
2023-05-19T06:30:19.698Z,100618.16
2023-05-19T06:33:21.758Z,100619.87
2023-05-19T06:36:23.724Z,100610.31
2023-05-19T06:39:26.397Z,100614.38
2023-05-19T06:42:28.419Z,100604.53
2023-05-19T06:45:30.572Z,100605.19
2023-05-19T06:48:32.566Z,100604.22
2023-05-19T06:51:35.476Z,100601.75
2023-05-19T06:54:37.543Z,100602.97
2023-05-19T06:57:39.510Z,100602.81
2023-05-19T07:00:41.484Z,100597.78
2023-05-19T07:03:43.602Z,100597.78
2023-05-19T07:06:45.662Z,100594.00
2023-05-19T07:09:47.651Z,100597.78
2023-05-19T07:12:49.698Z,100598.84
2023-05-19T07:15:55.915Z,100592.84
2023-05-19T07:18:58.075Z,100595.41
2023-05-19T07:22:00.093Z,100602.81
2023-05-19T07:25:02.181Z,100600.22
2023-05-19T07:28:04.314Z,100602.97
2023-05-19T07:31:06.714Z,100589.84
2023-05-19T07:34:08.968Z,100598.22
2023-05-19T07:37:10.962Z,100600.44
2023-05-19T07:40:13.268Z,100591.50
2023-05-19T07:43:15.279Z,100591.88
2023-05-19T07:46:17.558Z,100585.13
2023-05-19T07:49:19.593Z,100575.94
2023-05-19T07:52:21.607Z,100581.03
2023-05-19T07:55:23.570Z,100585.41
2023-05-19T07:58:25.546Z,100576.28
2023-05-19T08:01:28.390Z,100585.66
2023-05-19T08:04:30.344Z,100573.66
2023-05-19T08:07:32.438Z,100576.81
2023-05-19T08:10:34.738Z,100590.47
2023-05-19T08:13:36.937Z,100590.53
2023-05-19T08:16:39.013Z,100591.09
2023-05-19T08:19:41.020Z,100587.47
2023-05-19T08:22:43.146Z,100596.75
2023-05-19T08:25:45.735Z,100596.19
2023-05-19T08:28:47.728Z,100591.28
2023-05-19T08:31:49.690Z,100594.91
2023-05-19T08:34:51.723Z,100593.81
2023-05-19T08:37:53.722Z,100597.88
2023-05-19T08:40:58.142Z,100588.16
2023-05-19T08:44:00.235Z,100587.78
2023-05-19T08:47:05.497Z,100583.31
2023-05-19T08:50:10.799Z,100588.94
2023-05-19T08:53:33.271Z,100579.16
2023-05-19T08:56:36.848Z,100587.41
2023-05-19T08:59:40.006Z,100577.44
2023-05-19T09:02:50.644Z,100576.16
2023-05-19T09:06:04.461Z,100574.84
2023-05-19T09:09:07.235Z,100566.66
2023-05-19T09:12:13.920Z,100568.63
2023-05-19T09:15:19.387Z,100569.09
2023-05-19T09:18:21.436Z,100567.88
2023-05-19T09:21:31.399Z,100572.06
2023-05-19T09:24:34.640Z,100573.22
2023-05-19T09:27:36.696Z,100565.66
2023-05-19T09:30:39.493Z,100577.72
2023-05-19T09:33:45.637Z,100572.72
2023-05-19T09:36:54.805Z,100569.81
2023-05-19T09:39:57.320Z,100563.13
2023-05-19T09:42:59.366Z,100570.84
2023-05-19T09:46:08.370Z,100564.22
2023-05-19T09:49:10.567Z,100565.19
2023-05-19T09:52:16.417Z,100554.00
2023-05-19T09:55:20.237Z,100554.72
2023-05-19T09:58:24.350Z,100552.03
2023-05-19T10:01:26.817Z,100542.22
2023-05-19T10:04:30.615Z,100551.12
2023-05-19T10:07:33.849Z,100547.38
2023-05-19T10:10:37.542Z,100546.41
2023-05-19T10:13:40.194Z,100544.34
2023-05-19T10:16:42.505Z,100541.03
2023-05-19T10:19:45.363Z,100536.44
2023-05-19T10:22:47.983Z,100526.03
2023-05-19T10:25:53.085Z,100529.25
2023-05-19T10:28:56.828Z,100535.22
2023-05-19T10:32:04.393Z,100532.25
2023-05-19T10:35:27.711Z,100535.91
2023-05-19T10:38:48.387Z,100536.56
2023-05-19T10:42:16.126Z,100539.44
2023-05-19T10:45:22.509Z,100537.72
2023-05-19T10:48:24.712Z,100546.75
2023-05-19T10:51:34.072Z,100540.56
2023-05-19T10:54:46.405Z,100545.25
2023-05-19T10:57:57.109Z,100552.41
2023-05-19T11:01:01.075Z,100546.94
2023-05-19T11:04:09.207Z,100538.16
2023-05-19T11:07:15.702Z,100523.91
2023-05-19T11:10:23.767Z,100521.50
2023-05-19T11:13:28.518Z,100524.59
2023-05-19T11:16:32.761Z,100526.38
2023-05-19T11:19:36.069Z,100529.22
2023-05-19T11:22:38.997Z,100527.72
2023-05-19T11:25:42.644Z,100524.41
2023-05-19T11:28:45.612Z,100520.53
2023-05-19T11:31:48.871Z,100516.94
2023-05-19T11:34:51.592Z,100511.06
2023-05-19T11:37:54.983Z,100515.72
2023-05-19T11:40:57.649Z,100521.13
2023-05-19T11:43:59.648Z,100507.28
2023-05-19T11:47:02.216Z,100513.41
2023-05-19T11:50:05.100Z,100519.06
2023-05-19T11:53:08.345Z,100500.84
2023-05-19T11:56:12.187Z,100507.38
2023-05-19T11:59:14.275Z,100500.00
2023-05-19T12:02:21.192Z,100509.56
2023-05-19T12:05:26.130Z,100515.09
2023-05-19T12:08:29.669Z,100510.34
2023-05-19T12:11:31.997Z,100510.66
2023-05-19T12:14:34.663Z,100513.31
2023-05-19T12:17:36.694Z,100512.75
2023-05-19T12:20:39.356Z,100504.41
2023-05-19T12:23:42.544Z,100499.25
2023-05-19T12:26:44.510Z,100501.00
2023-05-19T12:29:53.990Z,100488.97
2023-05-19T12:32:57.911Z,100474.97
2023-05-19T12:36:00.226Z,100478.19
2023-05-19T12:39:04.915Z,100479.28
2023-05-19T12:42:11.588Z,100474.09
2023-05-19T12:45:13.604Z,100467.03
2023-05-19T12:48:16.207Z,100471.84
2023-05-19T12:51:20.071Z,100473.59
2023-05-19T12:54:22.687Z,100472.81
2023-05-19T12:57:26.231Z,100470.31
2023-05-19T13:00:31.280Z,100472.31
2023-05-19T13:03:33.440Z,100476.97
2023-05-19T13:06:35.477Z,100462.38
2023-05-19T13:09:38.510Z,100471.97
2023-05-19T13:12:40.432Z,100463.06
2023-05-19T13:15:48.868Z,100456.28
2023-05-19T13:18:51.597Z,100450.94
2023-05-19T13:21:53.618Z,100443.78
2023-05-19T13:24:58.932Z,100447.22
2023-05-19T13:28:03.993Z,100447.94
2023-05-19T13:31:06.056Z,100437.00
2023-05-19T13:34:08.160Z,100434.91
2023-05-19T13:37:11.592Z,100436.87
2023-05-19T13:40:13.886Z,100431.19
2023-05-19T13:43:15.858Z,100424.13
2023-05-19T13:46:19.250Z,100429.06
2023-05-19T13:49:24.146Z,100429.34
2023-05-19T13:52:27.505Z,100430.31
2023-05-19T13:55:30.933Z,100421.00
2023-05-19T13:58:33.003Z,100414.66
2023-05-19T14:01:35.098Z,100414.09
2023-05-19T14:04:38.625Z,100402.84
2023-05-19T14:07:40.623Z,100408.53
2023-05-19T14:10:43.494Z,100408.53
2023-05-19T14:13:46.278Z,100407.81
2023-05-19T14:16:48.443Z,100414.28
2023-05-19T14:19:50.358Z,100410.28
2023-05-19T14:22:52.399Z,100416.84
2023-05-19T14:25:54.415Z,100413.41
2023-05-19T14:28:57.211Z,100410.44
2023-05-19T14:31:59.260Z,100400.69
2023-05-19T14:35:01.556Z,100411.00
2023-05-19T14:38:03.652Z,100408.56
2023-05-19T14:41:06.956Z,100399.84
2023-05-19T14:44:08.971Z,100407.97
2023-05-19T14:47:12.572Z,100406.00
2023-05-19T14:50:14.758Z,100411.75
2023-05-19T14:53:17.052Z,100412.59
2023-05-19T14:56:19.066Z,100410.19
2023-05-19T14:59:21.819Z,100404.97
2023-05-19T15:02:23.887Z,100418.66
2023-05-19T15:05:26.074Z,100409.75
2023-05-19T15:08:28.010Z,100413.13
2023-05-19T15:11:30.335Z,100404.94
2023-05-19T15:14:32.278Z,100399.03
2023-05-19T15:17:34.305Z,100401.31
2023-05-19T15:20:36.427Z,100403.84
2023-05-19T15:23:38.628Z,100396.81
2023-05-19T15:26:40.620Z,100393.97
2023-05-19T15:29:42.712Z,100388.31
2023-05-19T15:32:44.704Z,100384.50
2023-05-19T15:35:47.822Z,100390.16
2023-05-19T15:38:49.821Z,100381.69
2023-05-19T15:41:51.917Z,100387.19
2023-05-19T15:44:53.971Z,100377.88
2023-05-19T15:47:56.229Z,100380.72
2023-05-19T15:50:59.198Z,100374.50
2023-05-19T15:54:01.177Z,100369.44
2023-05-19T15:57:03.139Z,100365.47
2023-05-19T16:00:05.628Z,100359.13
2023-05-19T16:03:08.005Z,100355.63
2023-05-19T16:06:10.070Z,100349.25
2023-05-19T16:09:12.161Z,100341.38
2023-05-19T16:12:14.445Z,100338.25
2023-05-19T16:15:16.538Z,100344.91
2023-05-19T16:18:18.767Z,100340.09
2023-05-19T16:21:21.538Z,100351.81
2023-05-19T16:24:23.485Z,100353.09
2023-05-19T16:27:25.597Z,100348.28
2023-05-19T16:30:28.165Z,100347.16
2023-05-19T16:33:30.229Z,100345.19
2023-05-19T16:36:32.568Z,100350.53
2023-05-19T16:39:37.308Z,100347.28
2023-05-19T16:42:39.567Z,100343.50
2023-05-19T16:45:41.625Z,100342.34
2023-05-19T16:48:43.898Z,100338.13
2023-05-19T16:51:47.555Z,100340.06
2023-05-19T16:54:50.969Z,100340.34
2023-05-19T16:57:53.070Z,100340.06
2023-05-19T17:00:55.309Z,100340.84
2023-05-19T17:03:57.427Z,100335.87
2023-05-19T17:06:59.446Z,100335.19
2023-05-19T17:10:01.431Z,100343.06
2023-05-19T17:13:03.343Z,100333.50
2023-05-19T17:16:05.672Z,100339.13
2023-05-19T17:19:07.726Z,100335.44
2023-05-19T17:22:09.804Z,100335.13
2023-05-19T17:25:11.868Z,100327.91
2023-05-19T17:28:13.934Z,100326.19
2023-05-19T17:31:15.985Z,100323.34
2023-05-19T17:34:17.964Z,100312.59
2023-05-19T17:37:23.495Z,100308.78
2023-05-19T17:40:25.576Z,100311.25
2023-05-19T17:43:27.715Z,100308.53
2023-05-19T17:46:34.722Z,100309.19
2023-05-19T17:49:36.843Z,100305.44
2023-05-19T17:52:40.574Z,100301.97
2023-05-19T17:56:02.264Z,100308.09
2023-05-19T17:59:04.593Z,100307.19
2023-05-19T18:02:07.907Z,100313.19
2023-05-19T18:05:10.737Z,100301.31
2023-05-19T18:08:13.690Z,100310.09
2023-05-19T18:11:16.624Z,100309.28
2023-05-19T18:14:18.657Z,100311.84
2023-05-19T18:17:20.679Z,100315.28
2023-05-19T18:20:22.659Z,100316.41
2023-05-19T18:23:24.703Z,100317.47
2023-05-19T18:26:26.756Z,100312.75
2023-05-19T18:29:28.712Z,100313.00
2023-05-19T18:32:30.752Z,100316.75
2023-05-19T18:35:32.974Z,100307.31
2023-05-19T18:38:35.080Z,100313.12
2023-05-19T18:41:37.789Z,100308.19
2023-05-19T18:44:39.954Z,100304.41
2023-05-19T18:47:42.150Z,100312.91
2023-05-19T18:50:44.801Z,100316.03
2023-05-19T18:53:49.495Z,100321.84
2023-05-19T18:56:51.553Z,100322.44
2023-05-19T18:59:53.751Z,100318.69
2023-05-19T19:02:55.787Z,100327.88
2023-05-19T19:05:59.169Z,100321.44
2023-05-19T19:09:01.132Z,100320.69
2023-05-19T19:12:04.642Z,100314.75
2023-05-19T19:15:07.218Z,100316.59
2023-05-19T19:18:09.438Z,100323.59
2023-05-19T19:21:11.533Z,100316.72
2023-05-19T19:24:13.864Z,100328.53
2023-05-19T19:27:20.944Z,100325.50
2023-05-19T19:30:22.962Z,100334.88
2023-05-19T19:33:25.054Z,100338.25
2023-05-19T19:36:27.165Z,100336.38
2023-05-19T19:39:29.210Z,100332.47
2023-05-19T19:42:31.945Z,100332.94
2023-05-19T19:45:34.990Z,100332.44
2023-05-19T19:48:37.065Z,100339.16
2023-05-19T19:51:38.967Z,100345.37
2023-05-19T19:54:41.057Z,100334.22
2023-05-19T19:57:45.708Z,100339.47
2023-05-19T20:00:47.721Z,100348.00
2023-05-19T20:03:49.917Z,100344.69
2023-05-19T20:06:51.996Z,100353.97
2023-05-19T20:09:55.967Z,100356.22
2023-05-19T20:12:59.339Z,100367.06
2023-05-19T20:16:01.566Z,100370.13
2023-05-19T20:19:04.095Z,100371.44
2023-05-19T20:22:06.599Z,100376.97
2023-05-19T20:25:09.083Z,100372.91
2023-05-19T20:28:11.029Z,100375.78
2023-05-19T20:31:13.008Z,100363.66
2023-05-19T20:34:15.031Z,100356.31
2023-05-19T20:37:17.520Z,100359.75
2023-05-19T20:40:19.452Z,100357.09
2023-05-19T20:43:21.543Z,100361.50
2023-05-19T20:46:23.581Z,100359.06
2023-05-19T20:49:25.529Z,100361.00
2023-05-19T20:52:27.583Z,100363.88
2023-05-19T20:55:29.619Z,100363.34
2023-05-19T20:58:32.174Z,100368.12
2023-05-19T21:01:34.268Z,100368.12
2023-05-19T21:04:36.520Z,100368.00
2023-05-19T21:07:38.533Z,100368.56
2023-05-19T21:10:41.062Z,100361.22
2023-05-19T21:13:43.504Z,100358.56
2023-05-19T21:16:48.971Z,100355.91
2023-05-19T21:19:52.820Z,100356.75
2023-05-19T21:22:55.700Z,100355.06
2023-05-19T21:25:58.873Z,100352.28
2023-05-19T21:29:00.873Z,100358.56
2023-05-19T21:32:02.885Z,100362.91
2023-05-19T21:35:06.215Z,100350.59
2023-05-19T21:38:21.962Z,100350.81
2023-05-19T21:41:25.213Z,100342.84
2023-05-19T21:44:27.300Z,100349.13
2023-05-19T21:47:29.265Z,100357.59
2023-05-19T21:50:31.392Z,100349.75
2023-05-19T21:53:33.554Z,100334.66
2023-05-19T21:56:35.630Z,100341.03
2023-05-19T21:59:37.745Z,100339.97
2023-05-19T22:02:40.581Z,100339.97
2023-05-19T22:05:42.590Z,100327.88
2023-05-19T22:08:44.626Z,100338.78
2023-05-19T22:11:46.541Z,100342.19
2023-05-19T22:14:48.581Z,100337.81
2023-05-19T22:17:50.711Z,100330.81
2023-05-19T22:20:52.696Z,100332.63
2023-05-19T22:23:54.788Z,100331.03
2023-05-19T22:26:56.798Z,100330.28
2023-05-19T22:29:59.894Z,100341.87
2023-05-19T22:33:02.358Z,100338.16
2023-05-19T22:36:04.472Z,100330.81
2023-05-19T22:39:06.507Z,100332.09
2023-05-19T22:42:08.617Z,100328.41
2023-05-19T22:45:10.936Z,100331.06
2023-05-19T22:48:12.954Z,100324.91
2023-05-19T22:51:14.967Z,100322.25
2023-05-19T22:54:16.978Z,100322.44
2023-05-19T22:57:19.481Z,100318.91
2023-05-19T23:00:21.398Z,100314.56
2023-05-19T23:03:23.435Z,100304.16
2023-05-19T23:06:25.386Z,100313.28
2023-05-19T23:09:27.618Z,100304.91
2023-05-19T23:12:29.601Z,100303.66
2023-05-19T23:15:31.769Z,100298.75
2023-05-19T23:18:33.819Z,100301.84
2023-05-19T23:21:36.196Z,100300.38
2023-05-19T23:24:38.090Z,100292.81
2023-05-19T23:27:40.311Z,100291.56
2023-05-19T23:30:42.337Z,100288.56
2023-05-19T23:33:44.253Z,100295.13
2023-05-19T23:36:46.504Z,100289.38
2023-05-19T23:39:48.549Z,100293.53
2023-05-19T23:42:50.517Z,100294.87
2023-05-19T23:45:52.504Z,100289.16
2023-05-19T23:48:54.429Z,100289.16
2023-05-19T23:51:56.506Z,100283.12
2023-05-19T23:54:58.465Z,100273.63
2023-05-19T23:58:00.723Z,100265.81
